sensor_id;sensor_type;location;lat;lon;timestamp;temperature;humidity
19389;DHT22;9830;41.876;23.474;2022-08-23T00:01:31;15.30;99.90
19389;DHT22;9830;41.876;23.474;2022-08-23T00:04:03;15.40;99.90
19389;DHT22;9830;41.876;23.474;2022-08-23T00:06:29;15.30;99.90
19389;DHT22;9830;41.876;23.474;2022-08-23T00:08:55;15.30;99.90
19389;DHT22;9830;41.876;23.474;2022-08-23T00:11:35;15.30;99.90
19389;DHT22;9830;41.876;23.474;2022-08-23T00:14:11;15.30;99.90
19389;DHT22;9830;41.876;23.474;2022-08-23T00:16:38;15.40;99.90
19389;DHT22;9830;41.876;23.474;2022-08-23T00:19:06;15.40;99.90
19389;DHT22;9830;41.876;23.474;2022-08-23T00:21:34;15.40;99.90
19389;DHT22;9830;41.876;23.474;2022-08-23T00:24:01;15.40;99.90
19389;DHT22;9830;41.876;23.474;2022-08-23T00:29:24;15.40;99.90
19389;DHT22;9830;41.876;23.474;2022-08-23T00:31:50;15.40;99.90
19389;DHT22;9830;41.876;23.474;2022-08-23T00:34:16;15.40;99.90
19389;DHT22;9830;41.876;23.474;2022-08-23T00:36:42;15.40;99.90
19389;DHT22;9830;41.876;23.474;2022-08-23T00:39:10;15.40;99.90
19389;DHT22;9830;41.876;23.474;2022-08-23T00:41:36;15.40;99.90
19389;DHT22;9830;41.876;23.474;2022-08-23T00:44:02;15.40;99.90
19389;DHT22;9830;41.876;23.474;2022-08-23T00:46:50;15.40;99.90
19389;DHT22;9830;41.876;23.474;2022-08-23T00:49:38;15.40;99.90
19389;DHT22;9830;41.876;23.474;2022-08-23T00:54:33;15.40;99.90
19389;DHT22;9830;41.876;23.474;2022-08-23T00:57:03;15.30;99.90
19389;DHT22;9830;41.876;23.474;2022-08-23T00:59:30;15.20;99.90
19389;DHT22;9830;41.876;23.474;2022-08-23T01:01:57;15.20;99.90
19389;DHT22;9830;41.876;23.474;2022-08-23T01:04:30;15.20;99.90
19389;DHT22;9830;41.876;23.474;2022-08-23T01:07:12;15.20;99.90
19389;DHT22;9830;41.876;23.474;2022-08-23T01:09:40;15.20;99.90
19389;DHT22;9830;41.876;23.474;2022-08-23T01:12:14;15.10;99.90
19389;DHT22;9830;41.876;23.474;2022-08-23T01:14:52;15.00;99.90
19389;DHT22;9830;41.876;23.474;2022-08-23T01:17:27;15.00;99.90
19389;DHT22;9830;41.876;23.474;2022-08-23T01:20:04;14.90;99.90
19389;DHT22;9830;41.876;23.474;2022-08-23T01:23:05;15.00;99.90
19389;DHT22;9830;41.876;23.474;2022-08-23T01:25:33;15.00;99.90
19389;DHT22;9830;41.876;23.474;2022-08-23T01:27:59;15.00;99.90
19389;DHT22;9830;41.876;23.474;2022-08-23T01:30:29;15.00;99.90
19389;DHT22;9830;41.876;23.474;2022-08-23T01:33:00;15.00;99.90
19389;DHT22;9830;41.876;23.474;2022-08-23T01:35:43;15.00;99.90
19389;DHT22;9830;41.876;23.474;2022-08-23T01:38:10;14.90;99.90
19389;DHT22;9830;41.876;23.474;2022-08-23T01:40:37;14.90;99.90
19389;DHT22;9830;41.876;23.474;2022-08-23T01:43:04;14.80;99.90
19389;DHT22;9830;41.876;23.474;2022-08-23T01:45:31;14.80;99.90
19389;DHT22;9830;41.876;23.474;2022-08-23T01:47:57;14.80;99.90
19389;DHT22;9830;41.876;23.474;2022-08-23T01:50:24;14.70;99.90
19389;DHT22;9830;41.876;23.474;2022-08-23T01:52:50;14.70;99.90
19389;DHT22;9830;41.876;23.474;2022-08-23T01:55:16;14.70;99.90
19389;DHT22;9830;41.876;23.474;2022-08-23T01:57:42;14.60;99.90
19389;DHT22;9830;41.876;23.474;2022-08-23T02:00:10;14.60;99.90
19389;DHT22;9830;41.876;23.474;2022-08-23T02:02:36;14.70;99.90
19389;DHT22;9830;41.876;23.474;2022-08-23T02:05:06;14.80;99.90
19389;DHT22;9830;41.876;23.474;2022-08-23T02:07:33;14.80;99.90
19389;DHT22;9830;41.876;23.474;2022-08-23T02:09:59;14.80;99.90
19389;DHT22;9830;41.876;23.474;2022-08-23T02:12:24;15.00;99.90
19389;DHT22;9830;41.876;23.474;2022-08-23T02:14:50;15.00;99.90
19389;DHT22;9830;41.876;23.474;2022-08-23T02:17:16;15.00;99.90
19389;DHT22;9830;41.876;23.474;2022-08-23T02:19:43;15.00;99.90
19389;DHT22;9830;41.876;23.474;2022-08-23T02:22:09;15.00;99.90
19389;DHT22;9830;41.876;23.474;2022-08-23T02:24:39;15.00;99.90
19389;DHT22;9830;41.876;23.474;2022-08-23T02:27:06;14.90;99.90
19389;DHT22;9830;41.876;23.474;2022-08-23T02:29:32;14.80;99.90
19389;DHT22;9830;41.876;23.474;2022-08-23T02:32:00;14.80;99.90
19389;DHT22;9830;41.876;23.474;2022-08-23T02:34:26;14.80;99.90
19389;DHT22;9830;41.876;23.474;2022-08-23T02:36:53;14.70;99.90
19389;DHT22;9830;41.876;23.474;2022-08-23T02:39:19;14.70;99.90
19389;DHT22;9830;41.876;23.474;2022-08-23T02:41:45;14.70;99.90
19389;DHT22;9830;41.876;23.474;2022-08-23T02:44:11;14.80;99.90
19389;DHT22;9830;41.876;23.474;2022-08-23T02:46:38;14.80;99.90
19389;DHT22;9830;41.876;23.474;2022-08-23T02:49:04;14.80;99.90
19389;DHT22;9830;41.876;23.474;2022-08-23T02:51:30;14.70;99.90
19389;DHT22;9830;41.876;23.474;2022-08-23T02:53:56;14.60;99.90
19389;DHT22;9830;41.876;23.474;2022-08-23T02:56:21;14.50;99.90
19389;DHT22;9830;41.876;23.474;2022-08-23T02:58:48;14.50;99.90
19389;DHT22;9830;41.876;23.474;2022-08-23T03:01:20;14.50;99.90
19389;DHT22;9830;41.876;23.474;2022-08-23T03:03:46;14.50;99.90
19389;DHT22;9830;41.876;23.474;2022-08-23T03:06:15;14.50;99.90
19389;DHT22;9830;41.876;23.474;2022-08-23T03:08:42;14.50;99.90
19389;DHT22;9830;41.876;23.474;2022-08-23T03:11:13;14.60;99.90
19389;DHT22;9830;41.876;23.474;2022-08-23T03:13:40;14.50;99.90
19389;DHT22;9830;41.876;23.474;2022-08-23T03:16:07;14.50;99.90
19389;DHT22;9830;41.876;23.474;2022-08-23T03:18:34;14.60;99.90
19389;DHT22;9830;41.876;23.474;2022-08-23T03:21:00;14.60;99.90
19389;DHT22;9830;41.876;23.474;2022-08-23T03:23:26;14.70;99.90
19389;DHT22;9830;41.876;23.474;2022-08-23T03:25:52;14.70;99.90
19389;DHT22;9830;41.876;23.474;2022-08-23T03:28:18;14.70;99.90
19389;DHT22;9830;41.876;23.474;2022-08-23T03:30:45;14.70;99.90
19389;DHT22;9830;41.876;23.474;2022-08-23T03:33:11;14.70;99.90
19389;DHT22;9830;41.876;23.474;2022-08-23T03:35:36;14.70;99.90
19389;DHT22;9830;41.876;23.474;2022-08-23T03:38:02;14.80;99.90
19389;DHT22;9830;41.876;23.474;2022-08-23T03:40:28;14.90;99.90
19389;DHT22;9830;41.876;23.474;2022-08-23T03:42:53;14.90;99.90
19389;DHT22;9830;41.876;23.474;2022-08-23T03:45:19;14.90;99.90
19389;DHT22;9830;41.876;23.474;2022-08-23T03:47:45;14.90;99.90
19389;DHT22;9830;41.876;23.474;2022-08-23T03:50:11;15.00;99.90
19389;DHT22;9830;41.876;23.474;2022-08-23T03:52:37;14.90;99.90
19389;DHT22;9830;41.876;23.474;2022-08-23T03:55:03;14.80;99.90
19389;DHT22;9830;41.876;23.474;2022-08-23T03:57:29;14.90;99.90
19389;DHT22;9830;41.876;23.474;2022-08-23T03:59:55;14.90;99.90
19389;DHT22;9830;41.876;23.474;2022-08-23T04:02:21;15.00;99.90
19389;DHT22;9830;41.876;23.474;2022-08-23T04:04:46;15.10;99.90
19389;DHT22;9830;41.876;23.474;2022-08-23T04:07:17;15.40;99.90
19389;DHT22;9830;41.876;23.474;2022-08-23T04:09:43;15.40;99.90
19389;DHT22;9830;41.876;23.474;2022-08-23T04:12:09;15.50;99.90
19389;DHT22;9830;41.876;23.474;2022-08-23T04:14:35;15.60;99.90
19389;DHT22;9830;41.876;23.474;2022-08-23T04:17:00;15.60;99.90
19389;DHT22;9830;41.876;23.474;2022-08-23T04:19:26;15.60;99.90
19389;DHT22;9830;41.876;23.474;2022-08-23T04:21:52;15.70;99.90
19389;DHT22;9830;41.876;23.474;2022-08-23T04:24:18;15.70;99.90
19389;DHT22;9830;41.876;23.474;2022-08-23T04:26:44;15.80;99.90
19389;DHT22;9830;41.876;23.474;2022-08-23T04:29:10;15.80;99.90
19389;DHT22;9830;41.876;23.474;2022-08-23T04:31:39;15.70;99.90
19389;DHT22;9830;41.876;23.474;2022-08-23T04:34:05;15.70;99.90
19389;DHT22;9830;41.876;23.474;2022-08-23T04:36:36;15.60;99.90
19389;DHT22;9830;41.876;23.474;2022-08-23T04:39:03;15.60;99.90
19389;DHT22;9830;41.876;23.474;2022-08-23T04:41:29;15.60;99.90
19389;DHT22;9830;41.876;23.474;2022-08-23T04:44:13;15.70;99.90
19389;DHT22;9830;41.876;23.474;2022-08-23T04:46:40;15.60;99.90
19389;DHT22;9830;41.876;23.474;2022-08-23T04:49:08;15.70;99.90
19389;DHT22;9830;41.876;23.474;2022-08-23T04:51:34;15.50;99.90
19389;DHT22;9830;41.876;23.474;2022-08-23T04:54:00;15.40;99.90
19389;DHT22;9830;41.876;23.474;2022-08-23T04:56:26;15.40;99.90
19389;DHT22;9830;41.876;23.474;2022-08-23T04:58:53;15.30;99.90
19389;DHT22;9830;41.876;23.474;2022-08-23T05:01:19;15.40;99.90
19389;DHT22;9830;41.876;23.474;2022-08-23T05:03:45;15.30;99.90
19389;DHT22;9830;41.876;23.474;2022-08-23T05:06:10;15.40;99.90
19389;DHT22;9830;41.876;23.474;2022-08-23T05:08:37;15.50;99.90
19389;DHT22;9830;41.876;23.474;2022-08-23T05:11:05;15.50;99.90
19389;DHT22;9830;41.876;23.474;2022-08-23T05:13:32;15.40;99.90
19389;DHT22;9830;41.876;23.474;2022-08-23T05:15:59;15.30;99.90
19389;DHT22;9830;41.876;23.474;2022-08-23T05:18:25;15.30;99.90
19389;DHT22;9830;41.876;23.474;2022-08-23T05:20:52;15.30;99.90
19389;DHT22;9830;41.876;23.474;2022-08-23T05:23:17;15.40;99.90
19389;DHT22;9830;41.876;23.474;2022-08-23T05:25:43;15.50;99.90
19389;DHT22;9830;41.876;23.474;2022-08-23T05:28:23;15.60;99.90
19389;DHT22;9830;41.876;23.474;2022-08-23T05:33:30;15.80;99.90
19389;DHT22;9830;41.876;23.474;2022-08-23T05:35:56;15.90;99.90
19389;DHT22;9830;41.876;23.474;2022-08-23T05:38:23;15.90;99.90
19389;DHT22;9830;41.876;23.474;2022-08-23T05:40:54;15.90;99.90
19389;DHT22;9830;41.876;23.474;2022-08-23T05:43:21;15.80;99.90
19389;DHT22;9830;41.876;23.474;2022-08-23T05:45:47;15.80;99.90
19389;DHT22;9830;41.876;23.474;2022-08-23T05:48:14;15.70;99.90
19389;DHT22;9830;41.876;23.474;2022-08-23T05:50:40;15.80;99.90
19389;DHT22;9830;41.876;23.474;2022-08-23T05:53:07;15.80;99.90
19389;DHT22;9830;41.876;23.474;2022-08-23T05:55:34;15.90;99.90
19389;DHT22;9830;41.876;23.474;2022-08-23T05:58:00;15.80;99.90
19389;DHT22;9830;41.876;23.474;2022-08-23T06:00:26;15.90;99.90
19389;DHT22;9830;41.876;23.474;2022-08-23T06:02:52;16.10;99.90
19389;DHT22;9830;41.876;23.474;2022-08-23T06:05:19;16.00;99.90
19389;DHT22;9830;41.876;23.474;2022-08-23T06:07:45;15.90;99.90
19389;DHT22;9830;41.876;23.474;2022-08-23T06:10:11;15.90;99.90
19389;DHT22;9830;41.876;23.474;2022-08-23T06:12:37;15.90;99.90
19389;DHT22;9830;41.876;23.474;2022-08-23T06:15:03;15.90;99.90
19389;DHT22;9830;41.876;23.474;2022-08-23T06:17:29;15.90;99.90
19389;DHT22;9830;41.876;23.474;2022-08-23T06:19:55;15.90;99.90
19389;DHT22;9830;41.876;23.474;2022-08-23T06:22:20;15.90;99.90
19389;DHT22;9830;41.876;23.474;2022-08-23T06:24:46;15.90;99.90
19389;DHT22;9830;41.876;23.474;2022-08-23T06:27:12;15.90;99.90
19389;DHT22;9830;41.876;23.474;2022-08-23T06:29:38;15.90;99.90
19389;DHT22;9830;41.876;23.474;2022-08-23T06:32:04;15.90;99.90
19389;DHT22;9830;41.876;23.474;2022-08-23T06:34:33;16.00;99.90
19389;DHT22;9830;41.876;23.474;2022-08-23T06:37:11;16.10;99.90
19389;DHT22;9830;41.876;23.474;2022-08-23T06:39:37;16.10;99.90
19389;DHT22;9830;41.876;23.474;2022-08-23T06:42:08;16.10;99.90
19389;DHT22;9830;41.876;23.474;2022-08-23T06:44:35;16.10;99.90
19389;DHT22;9830;41.876;23.474;2022-08-23T06:47:02;16.10;99.90
19389;DHT22;9830;41.876;23.474;2022-08-23T06:49:28;16.10;99.90
19389;DHT22;9830;41.876;23.474;2022-08-23T06:51:56;16.20;99.90
19389;DHT22;9830;41.876;23.474;2022-08-23T06:54:26;16.10;99.90
19389;DHT22;9830;41.876;23.474;2022-08-23T06:56:52;16.10;99.90
19389;DHT22;9830;41.876;23.474;2022-08-23T06:59:19;16.10;99.90
19389;DHT22;9830;41.876;23.474;2022-08-23T07:01:52;16.10;99.90
19389;DHT22;9830;41.876;23.474;2022-08-23T07:04:25;16.10;99.90
19389;DHT22;9830;41.876;23.474;2022-08-23T07:06:52;16.00;99.90
19389;DHT22;9830;41.876;23.474;2022-08-23T07:09:18;16.00;99.90
19389;DHT22;9830;41.876;23.474;2022-08-23T07:11:44;16.00;99.90
19389;DHT22;9830;41.876;23.474;2022-08-23T07:14:12;15.90;99.90
19389;DHT22;9830;41.876;23.474;2022-08-23T07:16:44;15.90;99.90
19389;DHT22;9830;41.876;23.474;2022-08-23T07:19:13;16.00;99.90
19389;DHT22;9830;41.876;23.474;2022-08-23T07:21:40;16.10;99.90
19389;DHT22;9830;41.876;23.474;2022-08-23T07:24:06;16.10;99.90
19389;DHT22;9830;41.876;23.474;2022-08-23T07:26:33;16.30;99.90
19389;DHT22;9830;41.876;23.474;2022-08-23T07:28:59;16.50;99.90
19389;DHT22;9830;41.876;23.474;2022-08-23T07:31:29;16.80;99.90
19389;DHT22;9830;41.876;23.474;2022-08-23T07:33:57;17.20;99.90
19389;DHT22;9830;41.876;23.474;2022-08-23T07:36:24;17.40;99.90
19389;DHT22;9830;41.876;23.474;2022-08-23T07:38:51;17.70;99.90
19389;DHT22;9830;41.876;23.474;2022-08-23T07:41:18;18.10;99.90
19389;DHT22;9830;41.876;23.474;2022-08-23T07:43:45;18.50;99.90
19389;DHT22;9830;41.876;23.474;2022-08-23T07:46:11;18.90;99.90
19389;DHT22;9830;41.876;23.474;2022-08-23T07:48:38;19.10;99.90
19389;DHT22;9830;41.876;23.474;2022-08-23T07:51:06;19.40;99.90
19389;DHT22;9830;41.876;23.474;2022-08-23T07:53:32;19.80;99.90
19389;DHT22;9830;41.876;23.474;2022-08-23T07:55:58;20.20;99.90
19389;DHT22;9830;41.876;23.474;2022-08-23T07:58:28;20.50;99.90
19389;DHT22;9830;41.876;23.474;2022-08-23T08:00:53;20.90;99.90
19389;DHT22;9830;41.876;23.474;2022-08-23T08:03:19;21.60;99.90
19389;DHT22;9830;41.876;23.474;2022-08-23T08:05:46;21.90;98.90
19389;DHT22;9830;41.876;23.474;2022-08-23T08:08:11;22.70;99.90
19389;DHT22;9830;41.876;23.474;2022-08-23T08:10:39;24.20;95.90
19389;DHT22;9830;41.876;23.474;2022-08-23T08:13:07;25.90;90.30
19389;DHT22;9830;41.876;23.474;2022-08-23T08:15:33;27.00;90.60
19389;DHT22;9830;41.876;23.474;2022-08-23T08:17:59;28.50;80.20
19389;DHT22;9830;41.876;23.474;2022-08-23T08:20:25;29.80;62.20
19389;DHT22;9830;41.876;23.474;2022-08-23T08:22:53;30.00;58.50
19389;DHT22;9830;41.876;23.474;2022-08-23T08:25:19;29.20;59.30
19389;DHT22;9830;41.876;23.474;2022-08-23T08:27:44;28.70;61.80
19389;DHT22;9830;41.876;23.474;2022-08-23T08:30:11;29.50;58.60
19389;DHT22;9830;41.876;23.474;2022-08-23T08:32:38;29.90;57.10
19389;DHT22;9830;41.876;23.474;2022-08-23T08:35:05;29.90;58.90
19389;DHT22;9830;41.876;23.474;2022-08-23T08:37:31;32.60;49.50
19389;DHT22;9830;41.876;23.474;2022-08-23T08:39:58;31.10;50.40
19389;DHT22;9830;41.876;23.474;2022-08-23T08:44:59;31.40;53.20
19389;DHT22;9830;41.876;23.474;2022-08-23T08:53:11;32.30;48.60
19389;DHT22;9830;41.876;23.474;2022-08-23T08:55:44;33.20;45.90
19389;DHT22;9830;41.876;23.474;2022-08-23T08:58:27;32.30;45.90
19389;DHT22;9830;41.876;23.474;2022-08-23T09:00:55;29.80;53.20
19389;DHT22;9830;41.876;23.474;2022-08-23T09:03:21;29.40;54.20
19389;DHT22;9830;41.876;23.474;2022-08-23T09:19:39;27.80;57.00
19389;DHT22;9830;41.876;23.474;2022-08-23T09:22:11;28.10;55.60
19389;DHT22;9830;41.876;23.474;2022-08-23T09:24:41;29.10;57.90
19389;DHT22;9830;41.876;23.474;2022-08-23T09:27:10;29.80;53.60
19389;DHT22;9830;41.876;23.474;2022-08-23T09:29:38;30.00;51.90
19389;DHT22;9830;41.876;23.474;2022-08-23T09:32:24;30.30;53.30
19389;DHT22;9830;41.876;23.474;2022-08-23T09:34:50;31.00;50.10
19389;DHT22;9830;41.876;23.474;2022-08-23T09:37:23;30.50;52.00
19389;DHT22;9830;41.876;23.474;2022-08-23T09:40:14;29.00;50.80
19389;DHT22;9830;41.876;23.474;2022-08-23T09:42:41;28.40;53.20
19389;DHT22;9830;41.876;23.474;2022-08-23T09:45:31;29.20;52.90
19389;DHT22;9830;41.876;23.474;2022-08-23T09:47:57;28.00;54.80
19389;DHT22;9830;41.876;23.474;2022-08-23T09:50:38;28.30;57.70
19389;DHT22;9830;41.876;23.474;2022-08-23T09:53:08;28.30;57.00
19389;DHT22;9830;41.876;23.474;2022-08-23T09:55:55;28.30;54.90
19389;DHT22;9830;41.876;23.474;2022-08-23T09:58:40;27.70;56.40
19389;DHT22;9830;41.876;23.474;2022-08-23T10:01:08;27.20;59.40
19389;DHT22;9830;41.876;23.474;2022-08-23T10:03:36;27.00;59.50
19389;DHT22;9830;41.876;23.474;2022-08-23T10:06:02;26.70;61.90
19389;DHT22;9830;41.876;23.474;2022-08-23T10:08:35;26.80;61.00
19389;DHT22;9830;41.876;23.474;2022-08-23T10:11:12;27.00;63.40
19389;DHT22;9830;41.876;23.474;2022-08-23T10:13:42;27.40;59.00
19389;DHT22;9830;41.876;23.474;2022-08-23T10:16:13;26.70;60.60
19389;DHT22;9830;41.876;23.474;2022-08-23T10:21:40;26.80;59.20
19389;DHT22;9830;41.876;23.474;2022-08-23T10:24:40;26.50;59.70
19389;DHT22;9830;41.876;23.474;2022-08-23T10:27:09;27.00;59.60
19389;DHT22;9830;41.876;23.474;2022-08-23T10:30:09;27.00;58.80
19389;DHT22;9830;41.876;23.474;2022-08-23T10:32:51;26.90;57.80
19389;DHT22;9830;41.876;23.474;2022-08-23T10:40:36;26.80;59.50
19389;DHT22;9830;41.876;23.474;2022-08-23T10:43:18;27.00;63.90
19389;DHT22;9830;41.876;23.474;2022-08-23T10:45:51;27.10;59.20
19389;DHT22;9830;41.876;23.474;2022-08-23T10:48:34;27.20;58.90
19389;DHT22;9830;41.876;23.474;2022-08-23T10:51:15;27.00;57.40
19389;DHT22;9830;41.876;23.474;2022-08-23T10:53:57;27.00;59.80
19389;DHT22;9830;41.876;23.474;2022-08-23T10:56:26;27.40;56.80
19389;DHT22;9830;41.876;23.474;2022-08-23T10:59:12;27.30;56.40
19389;DHT22;9830;41.876;23.474;2022-08-23T11:06:59;26.90;60.10
19389;DHT22;9830;41.876;23.474;2022-08-23T11:12:12;26.90;61.60
19389;DHT22;9830;41.876;23.474;2022-08-23T11:14:46;27.00;59.80
19389;DHT22;9830;41.876;23.474;2022-08-23T11:23:53;26.50;62.20
19389;DHT22;9830;41.876;23.474;2022-08-23T11:31:49;26.60;61.40
19389;DHT22;9830;41.876;23.474;2022-08-23T11:34:28;25.90;62.70
19389;DHT22;9830;41.876;23.474;2022-08-23T11:37:28;25.90;60.30
19389;DHT22;9830;41.876;23.474;2022-08-23T11:45:25;25.00;69.80
19389;DHT22;9830;41.876;23.474;2022-08-23T11:58:30;24.60;70.00
19389;DHT22;9830;41.876;23.474;2022-08-23T12:01:08;24.60;67.30
19389;DHT22;9830;41.876;23.474;2022-08-23T12:03:51;24.90;68.10
19389;DHT22;9830;41.876;23.474;2022-08-23T12:08:54;25.90;63.80
19389;DHT22;9830;41.876;23.474;2022-08-23T12:11:23;26.30;63.60
19389;DHT22;9830;41.876;23.474;2022-08-23T12:21:34;26.90;58.20
19389;DHT22;9830;41.876;23.474;2022-08-23T12:43:27;27.90;56.10
19389;DHT22;9830;41.876;23.474;2022-08-23T12:45:59;28.10;56.30
19389;DHT22;9830;41.876;23.474;2022-08-23T12:48:28;28.50;56.30
19389;DHT22;9830;41.876;23.474;2022-08-23T12:51:01;28.10;54.30
19389;DHT22;9830;41.876;23.474;2022-08-23T12:53:34;27.80;57.00
19389;DHT22;9830;41.876;23.474;2022-08-23T12:56:24;28.10;55.70
19389;DHT22;9830;41.876;23.474;2022-08-23T12:58:53;28.30;57.30
19389;DHT22;9830;41.876;23.474;2022-08-23T13:01:26;28.30;55.00
19389;DHT22;9830;41.876;23.474;2022-08-23T13:03:57;28.00;57.30
19389;DHT22;9830;41.876;23.474;2022-08-23T13:06:29;28.00;55.40
19389;DHT22;9830;41.876;23.474;2022-08-23T13:09:07;27.90;53.70
19389;DHT22;9830;41.876;23.474;2022-08-23T13:11:35;27.70;53.60
19389;DHT22;9830;41.876;23.474;2022-08-23T13:14:25;28.20;52.40
19389;DHT22;9830;41.876;23.474;2022-08-23T13:16:52;28.30;53.00
19389;DHT22;9830;41.876;23.474;2022-08-23T13:19:27;27.90;54.80
19389;DHT22;9830;41.876;23.474;2022-08-23T13:22:20;27.60;56.40
19389;DHT22;9830;41.876;23.474;2022-08-23T13:25:08;27.50;56.00
19389;DHT22;9830;41.876;23.474;2022-08-23T13:32:41;27.50;56.30
19389;DHT22;9830;41.876;23.474;2022-08-23T13:35:33;27.30;55.80
19389;DHT22;9830;41.876;23.474;2022-08-23T13:40:38;27.30;55.10
19389;DHT22;9830;41.876;23.474;2022-08-23T13:43:07;27.40;55.70
19389;DHT22;9830;41.876;23.474;2022-08-23T13:45:36;27.30;56.10
19389;DHT22;9830;41.876;23.474;2022-08-23T13:50:46;27.30;54.50
19389;DHT22;9830;41.876;23.474;2022-08-23T13:53:12;27.30;53.40
19389;DHT22;9830;41.876;23.474;2022-08-23T13:55:51;27.40;56.90
19389;DHT22;9830;41.876;23.474;2022-08-23T13:58:31;27.10;55.50
19389;DHT22;9830;41.876;23.474;2022-08-23T14:00:58;27.00;54.00
19389;DHT22;9830;41.876;23.474;2022-08-23T14:03:25;27.10;53.20
19389;DHT22;9830;41.876;23.474;2022-08-23T14:05:52;26.70;56.30
19389;DHT22;9830;41.876;23.474;2022-08-23T14:08:18;26.70;56.40
19389;DHT22;9830;41.876;23.474;2022-08-23T14:10:44;26.70;54.00
19389;DHT22;9830;41.876;23.474;2022-08-23T14:13:11;26.70;54.40
19389;DHT22;9830;41.876;23.474;2022-08-23T14:15:40;26.70;55.90
19389;DHT22;9830;41.876;23.474;2022-08-23T14:18:05;26.70;56.00
19389;DHT22;9830;41.876;23.474;2022-08-23T14:20:32;26.60;56.10
19389;DHT22;9830;41.876;23.474;2022-08-23T14:22:58;26.60;56.60
19389;DHT22;9830;41.876;23.474;2022-08-23T14:25:25;26.70;55.10
19389;DHT22;9830;41.876;23.474;2022-08-23T14:27:50;26.60;57.30
19389;DHT22;9830;41.876;23.474;2022-08-23T14:30:42;26.70;58.00
19389;DHT22;9830;41.876;23.474;2022-08-23T14:33:08;26.80;57.80
19389;DHT22;9830;41.876;23.474;2022-08-23T14:35:34;26.80;56.40
19389;DHT22;9830;41.876;23.474;2022-08-23T14:38:00;26.80;57.00
19389;DHT22;9830;41.876;23.474;2022-08-23T14:40:25;26.70;55.80
19389;DHT22;9830;41.876;23.474;2022-08-23T14:42:52;26.80;57.70
19389;DHT22;9830;41.876;23.474;2022-08-23T14:45:17;26.60;58.00
19389;DHT22;9830;41.876;23.474;2022-08-23T14:47:43;26.70;56.50
19389;DHT22;9830;41.876;23.474;2022-08-23T14:50:11;26.70;56.60
19389;DHT22;9830;41.876;23.474;2022-08-23T14:52:41;26.20;58.50
19389;DHT22;9830;41.876;23.474;2022-08-23T14:55:09;26.00;59.10
19389;DHT22;9830;41.876;23.474;2022-08-23T14:57:35;25.80;61.00
19389;DHT22;9830;41.876;23.474;2022-08-23T15:00:02;25.70;65.00
19389;DHT22;9830;41.876;23.474;2022-08-23T15:02:29;25.40;61.90
19389;DHT22;9830;41.876;23.474;2022-08-23T15:04:54;25.10;72.30
19389;DHT22;9830;41.876;23.474;2022-08-23T15:07:21;24.90;79.10
19389;DHT22;9830;41.876;23.474;2022-08-23T15:09:51;24.70;80.60
19389;DHT22;9830;41.876;23.474;2022-08-23T15:12:19;24.50;80.60
19389;DHT22;9830;41.876;23.474;2022-08-23T15:14:45;24.30;81.00
19389;DHT22;9830;41.876;23.474;2022-08-23T15:17:11;24.30;82.10
19389;DHT22;9830;41.876;23.474;2022-08-23T15:19:37;24.20;81.60
19389;DHT22;9830;41.876;23.474;2022-08-23T15:22:03;24.00;86.80
19389;DHT22;9830;41.876;23.474;2022-08-23T15:24:29;24.00;88.50
19389;DHT22;9830;41.876;23.474;2022-08-23T15:26:56;23.90;90.90
19389;DHT22;9830;41.876;23.474;2022-08-23T15:29:26;23.80;91.80
19389;DHT22;9830;41.876;23.474;2022-08-23T15:31:53;23.70;93.20
19389;DHT22;9830;41.876;23.474;2022-08-23T15:34:19;23.50;93.50
19389;DHT22;9830;41.876;23.474;2022-08-23T15:36:45;23.30;94.30
19389;DHT22;9830;41.876;23.474;2022-08-23T15:39:11;23.10;95.30
19389;DHT22;9830;41.876;23.474;2022-08-23T15:41:37;23.00;96.10
19389;DHT22;9830;41.876;23.474;2022-08-23T15:44:03;22.90;96.60
19389;DHT22;9830;41.876;23.474;2022-08-23T15:46:28;22.80;96.80
19389;DHT22;9830;41.876;23.474;2022-08-23T15:49:02;22.80;97.40
19389;DHT22;9830;41.876;23.474;2022-08-23T15:51:29;22.70;97.40
19389;DHT22;9830;41.876;23.474;2022-08-23T15:53:55;22.70;97.50
19389;DHT22;9830;41.876;23.474;2022-08-23T15:56:33;22.60;97.90
19389;DHT22;9830;41.876;23.474;2022-08-23T15:58:59;22.50;97.50
19389;DHT22;9830;41.876;23.474;2022-08-23T16:01:25;22.40;98.60
19389;DHT22;9830;41.876;23.474;2022-08-23T16:03:54;22.20;98.40
19389;DHT22;9830;41.876;23.474;2022-08-23T16:06:20;22.10;98.30
19389;DHT22;9830;41.876;23.474;2022-08-23T16:08:49;21.90;99.90
19389;DHT22;9830;41.876;23.474;2022-08-23T16:11:15;21.80;99.90
19389;DHT22;9830;41.876;23.474;2022-08-23T16:13:42;21.60;99.90
19389;DHT22;9830;41.876;23.474;2022-08-23T16:16:22;21.60;99.90
19389;DHT22;9830;41.876;23.474;2022-08-23T16:18:49;21.50;99.90
19389;DHT22;9830;41.876;23.474;2022-08-23T16:21:16;21.30;99.90
19389;DHT22;9830;41.876;23.474;2022-08-23T16:23:42;21.20;99.90
19389;DHT22;9830;41.876;23.474;2022-08-23T16:26:11;21.20;99.90
19389;DHT22;9830;41.876;23.474;2022-08-23T16:28:39;21.10;99.90
19389;DHT22;9830;41.876;23.474;2022-08-23T16:31:05;21.00;99.90
19389;DHT22;9830;41.876;23.474;2022-08-23T16:33:31;20.90;99.90
19389;DHT22;9830;41.876;23.474;2022-08-23T16:35:56;20.80;99.90
19389;DHT22;9830;41.876;23.474;2022-08-23T16:38:22;20.70;99.90
19389;DHT22;9830;41.876;23.474;2022-08-23T16:40:48;20.50;99.90
19389;DHT22;9830;41.876;23.474;2022-08-23T16:43:13;20.50;99.90
19389;DHT22;9830;41.876;23.474;2022-08-23T16:45:39;20.50;99.90
19389;DHT22;9830;41.876;23.474;2022-08-23T16:48:05;20.40;99.90
19389;DHT22;9830;41.876;23.474;2022-08-23T16:50:30;20.30;99.90
19389;DHT22;9830;41.876;23.474;2022-08-23T16:52:57;20.20;99.90
19389;DHT22;9830;41.876;23.474;2022-08-23T16:55:23;20.10;99.90
19389;DHT22;9830;41.876;23.474;2022-08-23T16:57:49;20.10;99.90
19389;DHT22;9830;41.876;23.474;2022-08-23T17:00:15;20.20;99.90
19389;DHT22;9830;41.876;23.474;2022-08-23T17:02:41;20.20;99.90
19389;DHT22;9830;41.876;23.474;2022-08-23T17:05:10;20.10;99.90
19389;DHT22;9830;41.876;23.474;2022-08-23T17:07:36;19.90;99.90
19389;DHT22;9830;41.876;23.474;2022-08-23T17:10:03;19.80;99.90
19389;DHT22;9830;41.876;23.474;2022-08-23T17:12:29;19.70;99.90
19389;DHT22;9830;41.876;23.474;2022-08-23T17:14:55;19.70;99.90
19389;DHT22;9830;41.876;23.474;2022-08-23T17:17:22;19.70;99.90
19389;DHT22;9830;41.876;23.474;2022-08-23T17:19:48;19.70;99.90
19389;DHT22;9830;41.876;23.474;2022-08-23T17:22:14;19.60;99.90
19389;DHT22;9830;41.876;23.474;2022-08-23T17:24:39;19.60;99.90
19389;DHT22;9830;41.876;23.474;2022-08-23T17:27:06;19.60;99.90
19389;DHT22;9830;41.876;23.474;2022-08-23T17:29:32;19.60;99.90
19389;DHT22;9830;41.876;23.474;2022-08-23T17:31:57;19.60;99.90
19389;DHT22;9830;41.876;23.474;2022-08-23T17:34:23;19.60;99.70
19389;DHT22;9830;41.876;23.474;2022-08-23T17:36:51;19.50;99.90